createdAt,value
2018-12-31T00:02:56.349Z,23.47
2018-12-31T00:07:00.871Z,26.83
2018-12-31T00:11:05.409Z,21.87
2018-12-31T00:15:09.884Z,23.10
2018-12-31T00:19:14.403Z,31.57
2018-12-31T00:23:18.972Z,26.70
2018-12-31T00:27:23.519Z,27.30
2018-12-31T00:31:28.054Z,27.03
2018-12-31T00:35:32.604Z,26.50
2018-12-31T00:39:37.083Z,24.53
2018-12-31T00:43:41.760Z,25.37
2018-12-31T00:47:46.306Z,25.20
2018-12-31T00:51:50.851Z,25.80
2018-12-31T00:55:55.430Z,26.80
2018-12-31T00:59:59.916Z,28.13
2018-12-31T01:04:04.438Z,27.57
2018-12-31T01:08:10.351Z,27.67
2018-12-31T01:12:14.901Z,27.90
2018-12-31T01:16:19.467Z,28.93
2018-12-31T01:20:23.960Z,30.23
2018-12-31T01:24:28.486Z,28.00
2018-12-31T01:28:33.012Z,27.63
2018-12-31T01:32:37.537Z,26.73
2018-12-31T01:36:42.064Z,26.60
2018-12-31T01:40:46.572Z,26.60
2018-12-31T01:44:51.134Z,29.47
2018-12-31T01:48:55.690Z,30.20
2018-12-31T01:53:00.217Z,28.80
2018-12-31T01:57:04.752Z,33.30
2018-12-31T02:01:09.249Z,37.50
2018-12-31T02:05:13.754Z,34.07
2018-12-31T02:09:18.280Z,36.37
2018-12-31T02:13:22.815Z,31.93
2018-12-31T02:17:27.345Z,31.63
2018-12-31T02:21:31.876Z,31.57
2018-12-31T02:25:36.402Z,34.53
2018-12-31T02:29:40.924Z,31.23
2018-12-31T02:33:45.560Z,30.13
2018-12-31T02:37:50.082Z,31.67
2018-12-31T02:41:54.592Z,26.33
2018-12-31T02:45:59.124Z,34.20
2018-12-31T02:50:03.662Z,28.40
2018-12-31T02:54:08.194Z,31.90
2018-12-31T02:58:12.722Z,32.33
2018-12-31T03:02:17.290Z,28.50
2018-12-31T03:06:21.816Z,32.10
2018-12-31T03:10:26.355Z,31.60
2018-12-31T03:14:31.381Z,33.50
2018-12-31T03:18:35.926Z,30.33
2018-12-31T03:22:40.455Z,31.13
2018-12-31T03:26:45.011Z,27.10
2018-12-31T03:30:49.560Z,28.33
2018-12-31T03:34:54.106Z,25.03
2018-12-31T03:38:58.640Z,35.87
2018-12-31T03:43:03.312Z,28.10
2018-12-31T03:47:07.842Z,27.07
2018-12-31T03:51:12.364Z,27.30
2018-12-31T03:55:16.885Z,24.03
2018-12-31T03:59:21.412Z,22.70
2018-12-31T04:03:26.068Z,20.43
2018-12-31T04:07:30.602Z,25.93
2018-12-31T04:11:35.129Z,23.77
2018-12-31T04:15:39.677Z,22.47
2018-12-31T04:19:44.199Z,21.40
2018-12-31T04:23:48.741Z,21.50
2018-12-31T04:27:53.278Z,22.50
2018-12-31T04:31:57.815Z,20.57
2018-12-31T04:36:02.373Z,19.30
2018-12-31T04:40:06.904Z,21.13
2018-12-31T04:44:11.418Z,19.13
2018-12-31T04:48:15.980Z,20.03
2018-12-31T04:52:20.511Z,20.87
2018-12-31T04:56:25.057Z,24.17
2018-12-31T05:00:29.585Z,24.50
2018-12-31T05:04:34.102Z,23.37
2018-12-31T05:08:38.660Z,22.90
2018-12-31T05:12:43.187Z,23.70
2018-12-31T05:17:45.372Z,22.97
2018-12-31T05:21:49.986Z,25.97
2018-12-31T05:25:54.487Z,24.07
2018-12-31T05:29:58.986Z,23.17
2018-12-31T05:34:03.510Z,23.57
2018-12-31T05:38:08.043Z,28.83
2018-12-31T05:42:12.601Z,24.57
2018-12-31T05:46:17.150Z,25.70
2018-12-31T05:50:21.781Z,27.23
2018-12-31T05:54:26.276Z,24.80
2018-12-31T05:58:30.801Z,24.40
2018-12-31T06:02:35.334Z,22.93
2018-12-31T06:06:39.879Z,24.23
2018-12-31T06:10:44.418Z,22.23
2018-12-31T06:14:48.923Z,20.70
2018-12-31T06:18:53.465Z,22.23
2018-12-31T06:22:58.100Z,21.87
2018-12-31T06:27:02.652Z,27.73
2018-12-31T06:31:07.215Z,23.77
2018-12-31T06:35:11.707Z,31.57
2018-12-31T06:39:16.255Z,22.87
2018-12-31T06:43:20.950Z,22.37
2018-12-31T06:47:25.508Z,24.63
2018-12-31T06:51:30.045Z,20.63
2018-12-31T06:55:34.904Z,26.43
2018-12-31T06:59:39.439Z,19.73
2018-12-31T07:03:44.121Z,24.33
2018-12-31T07:07:48.655Z,24.80
2018-12-31T07:11:53.270Z,24.97
2018-12-31T07:15:57.825Z,23.37
2018-12-31T07:20:02.385Z,23.13
2018-12-31T07:24:06.996Z,27.80
2018-12-31T07:28:11.544Z,26.40
2018-12-31T07:32:16.092Z,26.63
2018-12-31T07:36:20.606Z,22.27
2018-12-31T07:40:25.132Z,23.10
2018-12-31T07:44:29.698Z,21.60
2018-12-31T07:48:34.249Z,20.43
2018-12-31T07:52:38.812Z,23.60
2018-12-31T07:56:43.304Z,24.00
2018-12-31T08:00:47.844Z,22.37
2018-12-31T08:04:52.368Z,25.50
2018-12-31T08:08:56.904Z,26.50
2018-12-31T08:13:01.448Z,19.67
2018-12-31T08:17:05.972Z,21.93
2018-12-31T08:21:10.556Z,18.60
2018-12-31T08:25:19.430Z,19.63
2018-12-31T08:29:21.284Z,20.53
2018-12-31T08:33:26.021Z,21.70
2018-12-31T08:37:31.112Z,19.00
2018-12-31T08:41:35.752Z,19.57
2018-12-31T08:45:40.287Z,17.57
2018-12-31T08:49:44.865Z,21.20
2018-12-31T08:53:52.345Z,17.43
2018-12-31T08:57:56.890Z,21.27
2018-12-31T09:02:01.620Z,22.47
2018-12-31T09:06:06.276Z,20.30
2018-12-31T09:10:10.838Z,20.60
2018-12-31T09:14:15.383Z,18.20
2018-12-31T09:18:19.909Z,20.63
2018-12-31T09:22:24.471Z,18.47
2018-12-31T09:26:29.028Z,19.77
2018-12-31T09:30:33.567Z,14.77
2018-12-31T09:34:38.109Z,17.27
2018-12-31T09:38:42.596Z,16.47
2018-12-31T09:42:47.139Z,18.83
2018-12-31T09:46:51.691Z,15.57
2018-12-31T09:50:56.249Z,21.43
2018-12-31T09:55:00.791Z,12.73
2018-12-31T09:59:05.296Z,14.23
2018-12-31T10:03:09.874Z,14.97
2018-12-31T10:07:14.415Z,16.77
2018-12-31T10:11:18.958Z,12.60
2018-12-31T10:15:23.503Z,12.30
2018-12-31T10:19:28.059Z,13.97
2018-12-31T10:23:32.596Z,9.37
2018-12-31T10:27:37.125Z,9.37
2018-12-31T10:31:41.677Z,15.88
2018-12-31T10:35:46.208Z,8.20
2018-12-31T10:39:50.747Z,9.47
2018-12-31T10:43:55.315Z,7.20
2018-12-31T10:47:59.863Z,7.30
2018-12-31T10:52:04.420Z,5.93
2018-12-31T10:56:08.955Z,7.87
2018-12-31T11:00:13.507Z,7.90
2018-12-31T11:04:17.995Z,7.97
2018-12-31T11:08:22.528Z,11.97
2018-12-31T11:12:27.061Z,39.37
2018-12-31T11:16:31.600Z,11.50
2018-12-31T11:20:36.122Z,10.90
2018-12-31T11:24:40.700Z,11.27
2018-12-31T11:28:45.256Z,13.07
2018-12-31T11:32:49.780Z,9.83
2018-12-31T11:36:54.315Z,12.47
2018-12-31T11:40:58.853Z,10.57
2018-12-31T11:45:03.344Z,11.17
2018-12-31T11:49:07.875Z,10.97
2018-12-31T11:53:12.470Z,11.00
2018-12-31T11:57:17.016Z,12.53
2018-12-31T12:01:21.747Z,10.27
2018-12-31T12:05:26.248Z,13.17
2018-12-31T12:09:30.768Z,12.77
2018-12-31T12:13:35.300Z,15.07
2018-12-31T12:17:39.821Z,11.30
2018-12-31T12:21:48.441Z,14.77
2018-12-31T12:25:52.976Z,14.73
2018-12-31T12:29:57.509Z,12.97
2018-12-31T12:34:02.059Z,10.97
2018-12-31T12:38:06.600Z,11.50
2018-12-31T12:42:11.529Z,14.33
2018-12-31T12:46:16.029Z,18.03
2018-12-31T12:50:20.564Z,12.80
2018-12-31T12:54:25.098Z,12.03
2018-12-31T12:58:29.657Z,13.37
2018-12-31T13:02:34.216Z,13.67
2018-12-31T13:06:41.114Z,12.77
2018-12-31T13:10:45.675Z,12.93
2018-12-31T13:14:50.624Z,13.97
2018-12-31T13:18:55.185Z,13.17
2018-12-31T13:22:59.837Z,12.40
2018-12-31T13:27:04.390Z,15.33
2018-12-31T13:31:08.972Z,14.07
2018-12-31T13:35:13.557Z,13.83
2018-12-31T13:39:18.169Z,12.33
2018-12-31T13:43:22.743Z,13.47
2018-12-31T13:47:30.122Z,19.93
2018-12-31T13:51:34.809Z,17.60
2018-12-31T13:55:39.350Z,15.90
2018-12-31T13:59:43.899Z,14.37
2018-12-31T14:03:48.535Z,16.57
2018-12-31T14:07:53.236Z,16.03
2018-12-31T14:11:57.796Z,16.73
2018-12-31T14:16:02.334Z,16.43
2018-12-31T14:20:06.920Z,18.50
2018-12-31T14:24:11.517Z,18.03
2018-12-31T14:28:16.032Z,23.37
2018-12-31T14:32:20.570Z,18.40
2018-12-31T14:36:25.115Z,19.50
2018-12-31T14:40:29.663Z,17.63
2018-12-31T14:44:34.216Z,17.47
2018-12-31T14:48:38.741Z,23.20
2018-12-31T14:52:43.416Z,17.80
2018-12-31T14:56:47.962Z,21.33
2018-12-31T15:00:52.803Z,19.50
2018-12-31T15:04:57.343Z,27.80
2018-12-31T15:09:02.700Z,24.13
2018-12-31T15:13:07.423Z,25.47
2018-12-31T15:17:15.212Z,27.03
2018-12-31T15:21:19.868Z,21.00
2018-12-31T15:25:24.438Z,21.20
2018-12-31T15:29:28.963Z,22.30
2018-12-31T15:33:33.558Z,29.00
2018-12-31T15:37:42.880Z,20.03
2018-12-31T15:41:47.424Z,21.07
2018-12-31T15:45:51.958Z,23.30
2018-12-31T15:49:56.495Z,20.13
2018-12-31T15:54:01.408Z,23.60
2018-12-31T15:58:05.960Z,22.43
2018-12-31T16:02:10.603Z,22.57
2018-12-31T16:06:15.135Z,25.27
2018-12-31T16:10:19.640Z,26.47
2018-12-31T16:14:24.187Z,26.13
2018-12-31T16:18:28.767Z,27.03
2018-12-31T16:22:33.363Z,25.87
2018-12-31T16:26:37.905Z,28.00
2018-12-31T16:30:42.431Z,27.57
2018-12-31T16:34:52.888Z,24.60
2018-12-31T16:38:57.496Z,27.50
2018-12-31T16:43:03.250Z,29.60
2018-12-31T16:47:07.967Z,21.07
2018-12-31T16:51:12.522Z,22.47
2018-12-31T16:55:17.024Z,25.33
2018-12-31T16:59:21.646Z,24.93
2018-12-31T17:03:26.248Z,27.20
2018-12-31T17:07:30.799Z,21.60
2018-12-31T17:11:35.358Z,30.87
2018-12-31T17:15:39.925Z,29.37
2018-12-31T17:19:44.460Z,20.27
2018-12-31T17:23:49.045Z,30.23
2018-12-31T17:27:53.589Z,23.63
2018-12-31T17:31:58.139Z,26.77
2018-12-31T17:36:02.668Z,31.00
2018-12-31T17:40:07.235Z,31.27
2018-12-31T17:44:12.040Z,26.17
2018-12-31T17:48:16.742Z,23.00
2018-12-31T17:52:21.279Z,29.27
2018-12-31T17:56:25.789Z,30.97
2018-12-31T18:00:30.379Z,42.73
2018-12-31T18:04:34.918Z,27.13
2018-12-31T18:12:35.631Z,31.07
2018-12-31T18:16:40.128Z,22.40
2018-12-31T18:20:44.723Z,23.67
2018-12-31T18:24:49.248Z,19.13
2018-12-31T18:28:54.009Z,24.30
2018-12-31T18:32:58.534Z,21.80
2018-12-31T18:37:03.155Z,21.93
2018-12-31T18:41:07.746Z,25.87
2018-12-31T18:45:12.286Z,22.87
2018-12-31T18:49:16.932Z,21.30
2018-12-31T18:53:21.496Z,24.03
2018-12-31T18:57:25.994Z,22.37
2018-12-31T19:01:30.574Z,22.70
2018-12-31T19:05:35.139Z,23.63
2018-12-31T19:09:39.678Z,20.37
2018-12-31T19:13:44.219Z,19.63
2018-12-31T19:17:48.727Z,22.20
2018-12-31T19:21:53.319Z,17.80
2018-12-31T19:25:57.851Z,21.10
2018-12-31T19:30:02.407Z,19.33
2018-12-31T19:34:06.959Z,18.27
2018-12-31T19:38:11.562Z,14.17
2018-12-31T19:42:16.132Z,17.60
2018-12-31T19:46:20.680Z,11.40
2018-12-31T19:50:25.221Z,14.23
2018-12-31T19:54:29.751Z,16.90
2018-12-31T19:58:34.247Z,17.30
2018-12-31T20:02:38.876Z,10.47
2018-12-31T20:06:43.416Z,16.27
2018-12-31T20:10:47.948Z,15.60
2018-12-31T20:14:52.474Z,14.90
2018-12-31T20:18:57.007Z,23.30
2018-12-31T20:23:01.665Z,15.40
2018-12-31T20:27:06.228Z,14.57
2018-12-31T20:31:11.060Z,15.47
2018-12-31T20:35:15.712Z,20.70
2018-12-31T20:39:20.211Z,20.20
2018-12-31T20:43:24.747Z,21.33
2018-12-31T20:47:29.284Z,18.20
2018-12-31T20:51:33.807Z,20.57
2018-12-31T20:55:38.353Z,26.63
2018-12-31T20:59:42.853Z,23.93
2018-12-31T21:03:47.392Z,31.73
2018-12-31T21:07:51.941Z,58.53
2018-12-31T21:11:56.488Z,33.37
2018-12-31T21:16:01.011Z,47.30
2018-12-31T21:20:06.128Z,29.23
2018-12-31T21:24:10.709Z,25.07
2018-12-31T21:28:15.236Z,27.53
2018-12-31T21:32:19.771Z,27.93
2018-12-31T21:36:24.300Z,27.47
2018-12-31T21:40:28.999Z,28.63
2018-12-31T21:44:33.537Z,29.10
2018-12-31T21:48:38.069Z,37.93
2018-12-31T21:52:42.605Z,27.43
2018-12-31T21:56:47.135Z,32.30
2018-12-31T22:00:52.028Z,32.27
2018-12-31T22:04:56.562Z,30.47
2018-12-31T22:09:01.112Z,25.83
2018-12-31T22:13:05.652Z,22.33
2018-12-31T22:17:10.188Z,25.83
2018-12-31T22:21:15.235Z,19.33
2018-12-31T22:25:19.831Z,20.53
2018-12-31T22:29:24.381Z,22.27
2018-12-31T22:33:28.922Z,21.50
2018-12-31T22:37:33.455Z,21.80
2018-12-31T22:41:38.260Z,18.60
2018-12-31T22:45:42.800Z,18.80
2018-12-31T22:49:50.075Z,16.00
2018-12-31T22:53:54.633Z,18.00
2018-12-31T22:57:59.168Z,22.73
2018-12-31T23:02:03.659Z,27.63
2018-12-31T23:06:08.200Z,21.37
2018-12-31T23:10:12.748Z,22.73
2018-12-31T23:14:17.292Z,30.13
2018-12-31T23:18:21.832Z,45.27
2018-12-31T23:22:26.451Z,28.40
2018-12-31T23:26:30.979Z,30.77
2018-12-31T23:30:35.528Z,34.27
2018-12-31T23:34:40.059Z,26.67
2018-12-31T23:38:44.610Z,32.57
2018-12-31T23:42:49.114Z,34.00
2018-12-31T23:46:53.657Z,34.03
2018-12-31T23:50:58.172Z,38.40
2018-12-31T23:55:02.695Z,41.40
2018-12-31T23:59:07.235Z,36.40
